createdAt,value
2023-05-02T00:02:43.506Z,92175.91
2023-05-02T00:05:29.906Z,92178.97
2023-05-02T00:08:15.859Z,92177.81
2023-05-02T00:11:01.720Z,92176.63
2023-05-02T00:13:47.476Z,92185.41
2023-05-02T00:16:33.418Z,92180.91
2023-05-02T00:19:19.128Z,92172.47
2023-05-02T00:22:05.002Z,92181.03
2023-05-02T00:24:50.735Z,92177.56
2023-05-02T00:27:36.528Z,92174.94
2023-05-02T00:30:24.417Z,92167.34
2023-05-02T00:33:10.325Z,92165.44
2023-05-02T00:35:56.128Z,92166.88
2023-05-02T00:38:42.021Z,92168.38
2023-05-02T00:41:27.860Z,92168.00
2023-05-02T00:44:13.770Z,92160.22
2023-05-02T00:46:59.659Z,92161.84
2023-05-02T00:49:45.460Z,92166.38
2023-05-02T00:52:31.324Z,92168.44
2023-05-02T00:55:17.129Z,92164.19
2023-05-02T00:58:03.137Z,92162.72
2023-05-02T01:00:49.076Z,92160.16
2023-05-02T01:03:34.919Z,92159.63
2023-05-02T01:06:21.100Z,92165.38
2023-05-02T01:09:07.260Z,92161.34
2023-05-02T01:11:53.094Z,92162.59
2023-05-02T01:14:38.905Z,92163.94
2023-05-02T01:17:24.695Z,92163.16
2023-05-02T01:20:10.708Z,92158.84
2023-05-02T01:22:56.606Z,92167.03
2023-05-02T01:25:42.315Z,92164.22
2023-05-02T01:28:28.178Z,92164.41
2023-05-02T01:31:13.981Z,92166.78
2023-05-02T01:33:59.747Z,92172.94
2023-05-02T01:36:45.679Z,92169.97
2023-05-02T01:39:31.472Z,92171.38
2023-05-02T01:42:17.455Z,92175.78
2023-05-02T01:45:03.382Z,92173.28
2023-05-02T01:47:49.254Z,92172.38
2023-05-02T01:50:35.185Z,92163.53
2023-05-02T01:53:21.128Z,92174.50
2023-05-02T01:56:07.272Z,92168.16
2023-05-02T01:58:53.188Z,92173.72
2023-05-02T02:01:39.109Z,92171.47
2023-05-02T02:04:25.451Z,92176.53
2023-05-02T02:07:11.641Z,92181.69
2023-05-02T02:09:57.760Z,92180.66
2023-05-02T02:12:44.141Z,92180.41
2023-05-02T02:15:30.043Z,92174.38
2023-05-02T02:18:15.894Z,92179.97
2023-05-02T02:21:01.873Z,92181.28
2023-05-02T02:23:47.690Z,92185.00
2023-05-02T02:26:33.774Z,92186.28
2023-05-02T02:29:19.631Z,92186.97
2023-05-02T02:32:05.390Z,92185.50
2023-05-02T02:34:51.320Z,92187.69
2023-05-02T02:37:37.099Z,92194.63
2023-05-02T02:40:22.977Z,92197.06
2023-05-02T02:43:08.903Z,92191.84
2023-05-02T02:45:54.791Z,92181.31
2023-05-02T02:48:40.706Z,92189.91
2023-05-02T02:51:26.454Z,92181.13
2023-05-02T02:54:25.326Z,92182.28
2023-05-02T02:57:12.234Z,92183.06
2023-05-02T02:59:58.133Z,92194.38
2023-05-02T03:02:44.422Z,92192.88
2023-05-02T03:05:30.276Z,92196.22
2023-05-02T03:08:16.118Z,92203.28
2023-05-02T03:11:02.031Z,92198.28
2023-05-02T03:13:47.818Z,92191.97
2023-05-02T03:16:33.820Z,92200.72
2023-05-02T03:19:20.014Z,92195.53
2023-05-02T03:22:05.858Z,92200.84
2023-05-02T03:24:51.955Z,92192.22
2023-05-02T03:27:37.804Z,92194.63
2023-05-02T03:30:23.864Z,92195.38
2023-05-02T03:33:09.821Z,92188.00
2023-05-02T03:35:56.004Z,92198.47
2023-05-02T03:38:41.832Z,92199.81
2023-05-02T03:41:27.699Z,92201.63
2023-05-02T03:44:13.552Z,92205.50
2023-05-02T03:46:59.550Z,92206.66
2023-05-02T03:49:47.674Z,92203.31
2023-05-02T03:52:33.542Z,92203.94
2023-05-02T03:55:19.410Z,92203.06
2023-05-02T03:58:05.384Z,92205.19
2023-05-02T04:00:51.499Z,92205.28
2023-05-02T04:03:37.521Z,92193.09
2023-05-02T04:06:23.632Z,92192.50
2023-05-02T04:09:09.560Z,92183.53
2023-05-02T04:11:55.361Z,92195.34
2023-05-02T04:14:41.402Z,92196.03
2023-05-02T04:17:27.374Z,92189.06
2023-05-02T04:20:13.247Z,92197.84
2023-05-02T04:22:59.065Z,92198.16
2023-05-02T04:25:44.894Z,92203.69
2023-05-02T04:28:30.797Z,92204.66
2023-05-02T04:31:16.828Z,92197.28
2023-05-02T04:34:02.676Z,92203.88
2023-05-02T04:36:48.491Z,92217.50
2023-05-02T04:39:34.508Z,92213.59
2023-05-02T04:42:20.387Z,92213.88
2023-05-02T04:45:06.288Z,92223.69
2023-05-02T04:47:52.190Z,92223.47
2023-05-02T04:50:38.246Z,92230.63
2023-05-02T04:53:24.203Z,92238.34
2023-05-02T04:56:10.050Z,92233.66
2023-05-02T04:58:55.932Z,92238.25
2023-05-02T05:01:41.819Z,92236.75
2023-05-02T05:04:27.705Z,92236.09
2023-05-02T05:07:13.621Z,92236.47
2023-05-02T05:09:59.682Z,92251.13
2023-05-02T05:12:45.719Z,92253.66
2023-05-02T05:15:31.512Z,92257.53
2023-05-02T05:18:17.389Z,92260.91
2023-05-02T05:21:03.154Z,92267.63
2023-05-02T05:23:49.085Z,92267.06
2023-05-02T05:26:34.838Z,92271.09
2023-05-02T05:29:20.764Z,92273.56
2023-05-02T05:32:06.813Z,92270.19
2023-05-02T05:34:53.098Z,92283.81
2023-05-02T05:37:39.010Z,92275.94
2023-05-02T05:40:24.798Z,92280.72
2023-05-02T05:43:10.704Z,92281.03
2023-05-02T05:45:56.683Z,92285.03
2023-05-02T05:48:42.605Z,92290.63
2023-05-02T05:51:28.443Z,92291.69
2023-05-02T05:54:14.320Z,92291.94
2023-05-02T05:57:00.145Z,92294.78
2023-05-02T05:59:45.976Z,92296.34
2023-05-02T06:02:32.064Z,92301.50
2023-05-02T06:05:18.425Z,92299.06
2023-05-02T06:08:04.333Z,92303.16
2023-05-02T06:10:50.058Z,92313.50
2023-05-02T06:13:35.921Z,92317.50
2023-05-02T06:16:21.820Z,92321.69
2023-05-02T06:19:07.777Z,92322.00
2023-05-02T06:21:53.701Z,92323.88
2023-05-02T06:24:39.505Z,92331.47
2023-05-02T06:27:25.265Z,92330.72
2023-05-02T06:30:11.139Z,92330.75
2023-05-02T06:32:57.036Z,92329.50
2023-05-02T06:35:43.041Z,92327.25
2023-05-02T06:38:28.842Z,92326.81
2023-05-02T06:41:17.292Z,92331.06
2023-05-02T06:44:04.154Z,92332.75
2023-05-02T06:46:50.036Z,92330.13
2023-05-02T06:49:35.946Z,92331.34
2023-05-02T06:52:21.796Z,92328.25
2023-05-02T06:55:07.689Z,92338.50
2023-05-02T06:57:53.546Z,92346.63
2023-05-02T07:00:39.923Z,92343.16
2023-05-02T07:03:25.736Z,92350.31
2023-05-02T07:06:11.779Z,92350.56
2023-05-02T07:08:57.645Z,92340.69
2023-05-02T07:11:43.541Z,92352.78
2023-05-02T07:14:29.355Z,92343.72
2023-05-02T07:17:15.142Z,92357.56
2023-05-02T07:20:01.275Z,92347.00
2023-05-02T07:22:47.794Z,92354.94
2023-05-02T07:25:33.651Z,92352.63
2023-05-02T07:28:19.524Z,92351.81
2023-05-02T07:31:05.335Z,92354.91
2023-05-02T07:33:51.211Z,92351.06
2023-05-02T07:36:37.111Z,92355.59
2023-05-02T07:39:22.893Z,92357.97
2023-05-02T07:42:08.709Z,92344.47
2023-05-02T07:44:54.529Z,92351.13
2023-05-02T07:47:40.634Z,92353.00
2023-05-02T07:50:26.548Z,92351.59
2023-05-02T07:53:12.450Z,92345.88
2023-05-02T07:55:58.392Z,92346.94
2023-05-02T07:58:44.289Z,92340.53
2023-05-02T08:01:30.079Z,92342.13
2023-05-02T08:04:16.291Z,92338.66
2023-05-02T08:07:02.389Z,92337.53
2023-05-02T08:09:48.253Z,92333.84
2023-05-02T08:12:34.298Z,92338.78
2023-05-02T08:15:20.110Z,92337.31
2023-05-02T08:18:06.169Z,92345.16
2023-05-02T08:20:52.178Z,92341.94
2023-05-02T08:23:38.062Z,92347.94
2023-05-02T08:26:24.037Z,92349.88
2023-05-02T08:29:09.880Z,92353.91
2023-05-02T08:31:55.806Z,92351.53
2023-05-02T08:34:41.856Z,92354.72
2023-05-02T08:37:27.760Z,92357.81
2023-05-02T08:40:13.682Z,92360.88
2023-05-02T08:42:59.793Z,92360.66
2023-05-02T08:45:45.937Z,92348.47
2023-05-02T08:48:32.059Z,92349.56
2023-05-02T08:54:08.664Z,92362.41
2023-05-02T08:56:54.603Z,92363.41
2023-05-02T08:59:40.543Z,92366.41
2023-05-02T09:02:26.378Z,92364.78
2023-05-02T09:05:12.343Z,92369.38
2023-05-02T09:07:58.139Z,92368.59
2023-05-02T09:10:43.942Z,92373.50
2023-05-02T09:13:29.739Z,92375.41
2023-05-02T09:16:15.678Z,92357.50
2023-05-02T09:19:01.929Z,92364.19
2023-05-02T09:21:47.884Z,92364.59
2023-05-02T09:24:33.982Z,92370.72
2023-05-02T09:27:19.992Z,92384.25
2023-05-02T09:30:05.639Z,92383.88
2023-05-02T09:32:51.564Z,92380.56
2023-05-02T09:35:37.501Z,92377.31
2023-05-02T09:38:23.233Z,92375.53
2023-05-02T09:41:09.069Z,92373.44
2023-05-02T09:43:54.982Z,92372.91
2023-05-02T09:46:40.923Z,92371.47
2023-05-02T09:49:26.945Z,92371.28
2023-05-02T09:52:12.816Z,92363.72
2023-05-02T09:54:58.831Z,92376.59
2023-05-02T09:57:45.086Z,92373.72
2023-05-02T10:00:30.891Z,92377.81
2023-05-02T10:03:16.905Z,92381.94
2023-05-02T10:06:02.885Z,92385.16
2023-05-02T10:08:49.359Z,92392.06
2023-05-02T10:11:35.639Z,92394.59
2023-05-02T10:14:21.543Z,92390.31
2023-05-02T10:17:07.676Z,92391.88
2023-05-02T10:19:53.561Z,92390.56
2023-05-02T10:22:39.342Z,92400.94
2023-05-02T10:25:25.299Z,92402.81
2023-05-02T10:28:11.137Z,92397.28
2023-05-02T10:30:57.016Z,92388.75
2023-05-02T10:33:43.097Z,92388.59
2023-05-02T10:36:28.895Z,92382.66
2023-05-02T10:39:14.985Z,92388.31
2023-05-02T10:42:00.905Z,92387.50
2023-05-02T10:44:46.763Z,92394.25
2023-05-02T10:47:32.541Z,92382.38
2023-05-02T10:50:18.478Z,92381.09
2023-05-02T10:53:04.363Z,92377.75
2023-05-02T10:55:50.232Z,92374.13
2023-05-02T10:58:36.047Z,92372.44
2023-05-02T11:01:22.133Z,92389.63
2023-05-02T11:04:08.584Z,92384.34
2023-05-02T11:06:54.830Z,92380.13
2023-05-02T11:09:40.689Z,92386.94
2023-05-02T11:12:26.404Z,92368.78
2023-05-02T11:15:15.475Z,92379.47
2023-05-02T11:18:01.445Z,92374.41
2023-05-02T11:20:47.643Z,92382.94
2023-05-02T11:23:33.494Z,92383.81
2023-05-02T11:26:19.428Z,92381.19
2023-05-02T11:29:05.247Z,92376.94
2023-05-02T11:31:51.301Z,92384.59
2023-05-02T11:34:37.249Z,92385.63
2023-05-02T11:37:23.173Z,92367.41
2023-05-02T11:40:09.052Z,92371.94
2023-05-02T11:42:54.939Z,92371.97
2023-05-02T11:45:40.925Z,92375.06
2023-05-02T11:48:26.875Z,92371.22
2023-05-02T11:51:12.545Z,92364.63
2023-05-02T11:53:58.437Z,92375.91
2023-05-02T11:56:44.372Z,92373.28
2023-05-02T11:59:30.324Z,92365.78
2023-05-02T12:02:16.098Z,92378.72
2023-05-02T12:05:02.198Z,92371.63
2023-05-02T12:07:48.429Z,92369.84
2023-05-02T12:10:34.199Z,92364.88
2023-05-02T12:13:19.990Z,92364.44
2023-05-02T12:16:05.871Z,92377.78
2023-05-02T12:18:53.785Z,92370.69
2023-05-02T12:21:39.570Z,92376.53
2023-05-02T12:24:25.294Z,92384.44
2023-05-02T12:27:11.060Z,92379.06
2023-05-02T12:29:57.070Z,92390.00
2023-05-02T12:32:43.093Z,92388.66
2023-05-02T12:35:28.932Z,92391.75
2023-05-02T12:38:14.813Z,92392.91
2023-05-02T12:41:00.804Z,92393.41
2023-05-02T12:43:46.559Z,92390.13
2023-05-02T12:46:32.934Z,92388.28
2023-05-02T12:49:18.901Z,92381.94
2023-05-02T12:52:07.812Z,92376.34
2023-05-02T12:54:53.610Z,92389.28
2023-05-02T12:57:39.541Z,92392.19
2023-05-02T13:00:25.332Z,92383.03
2023-05-02T13:03:11.401Z,92384.59
2023-05-02T13:05:57.537Z,92391.63
2023-05-02T13:08:43.450Z,92394.22
2023-05-02T13:11:29.298Z,92393.59
2023-05-02T13:14:15.140Z,92380.06
2023-05-02T13:17:01.171Z,92382.34
2023-05-02T13:19:57.845Z,92386.53
2023-05-02T13:22:46.432Z,92383.53
2023-05-02T13:25:32.288Z,92377.13
2023-05-02T13:28:18.164Z,92380.31
2023-05-02T13:31:04.239Z,92382.81
2023-05-02T13:33:50.256Z,92378.84
2023-05-02T13:36:36.109Z,92388.16
2023-05-02T13:39:22.073Z,92382.91
2023-05-02T13:42:08.052Z,92389.47
2023-05-02T13:44:53.862Z,92374.50
2023-05-02T13:47:40.924Z,92380.56
2023-05-02T13:50:27.378Z,92375.28
2023-05-02T13:53:13.404Z,92379.06
2023-05-02T13:56:01.327Z,92375.28
2023-05-02T13:58:47.162Z,92384.47
2023-05-02T14:01:33.084Z,92386.56
2023-05-02T14:04:19.085Z,92387.13
2023-05-02T14:07:05.672Z,92382.94
2023-05-02T14:09:51.614Z,92377.34
2023-05-02T14:12:37.485Z,92383.13
2023-05-02T14:15:23.335Z,92383.69
2023-05-02T14:18:09.324Z,92372.34
2023-05-02T14:20:55.365Z,92377.28
2023-05-02T14:23:41.494Z,92373.38
2023-05-02T14:26:27.443Z,92384.00
2023-05-02T14:29:13.237Z,92386.50
2023-05-02T14:31:59.211Z,92388.47
2023-05-02T14:34:45.158Z,92388.81
2023-05-02T14:37:31.056Z,92390.00
2023-05-02T14:40:17.099Z,92386.16
2023-05-02T14:43:02.934Z,92390.88
2023-05-02T14:45:48.755Z,92391.97
2023-05-02T14:48:34.529Z,92388.41
2023-05-02T14:51:20.300Z,92386.59
2023-05-02T14:54:06.171Z,92381.44
2023-05-02T14:56:52.072Z,92381.69
2023-05-02T14:59:38.259Z,92376.50
2023-05-02T15:02:24.125Z,92372.72
2023-05-02T15:05:10.005Z,92376.91
2023-05-02T15:07:55.913Z,92378.72
2023-05-02T15:10:41.644Z,92377.28
2023-05-02T15:13:27.403Z,92384.75
2023-05-02T15:16:13.310Z,92388.09
2023-05-02T15:18:59.204Z,92390.84
2023-05-02T15:21:45.013Z,92385.16
2023-05-02T15:24:30.909Z,92376.50
2023-05-02T15:27:16.845Z,92384.81
2023-05-02T15:30:03.437Z,92379.50
2023-05-02T15:32:49.526Z,92385.50
2023-05-02T15:35:35.475Z,92378.59
2023-05-02T15:38:21.403Z,92380.63
2023-05-02T15:41:07.282Z,92376.13
2023-05-02T15:43:53.151Z,92386.69
2023-05-02T15:46:39.051Z,92382.13
2023-05-02T15:49:25.308Z,92387.13
2023-05-02T15:52:11.252Z,92381.06
2023-05-02T15:54:57.022Z,92386.72
2023-05-02T15:57:42.890Z,92399.50
2023-05-02T16:00:28.849Z,92393.88
2023-05-02T16:03:14.653Z,92389.97
2023-05-02T16:06:00.637Z,92389.66
2023-05-02T16:08:46.898Z,92390.38
2023-05-02T16:11:32.684Z,92391.25
2023-05-02T16:14:18.751Z,92391.22
2023-05-02T16:17:04.664Z,92395.41
2023-05-02T16:19:50.422Z,92396.56
2023-05-02T16:22:36.348Z,92396.09
2023-05-02T16:25:22.285Z,92395.06
2023-05-02T16:28:08.172Z,92405.63
2023-05-02T16:30:53.933Z,92409.03
2023-05-02T16:33:39.877Z,92403.28
2023-05-02T16:36:25.849Z,92413.75
2023-05-02T16:39:11.737Z,92411.13
2023-05-02T16:41:57.625Z,92403.88
2023-05-02T16:44:43.484Z,92408.72
2023-05-02T16:47:29.397Z,92401.69
2023-05-02T16:50:15.520Z,92405.03
2023-05-02T16:53:01.350Z,92402.00
2023-05-02T16:55:47.237Z,92407.34
2023-05-02T16:58:33.146Z,92398.63
2023-05-02T17:01:18.988Z,92400.56
2023-05-02T17:04:05.193Z,92396.75
2023-05-02T17:06:51.132Z,92397.94
2023-05-02T17:09:37.470Z,92402.03
2023-05-02T17:12:23.341Z,92407.91
2023-05-02T17:15:09.112Z,92403.72
2023-05-02T17:17:54.989Z,92408.53
2023-05-02T17:20:40.915Z,92409.75
2023-05-02T17:23:26.767Z,92412.13
2023-05-02T17:26:12.858Z,92417.16
2023-05-02T17:28:58.956Z,92421.03
2023-05-02T17:31:44.876Z,92416.19
2023-05-02T17:34:30.732Z,92420.59
2023-05-02T17:37:16.657Z,92429.03
2023-05-02T17:40:02.815Z,92427.91
2023-05-02T17:42:49.312Z,92441.59
2023-05-02T17:45:35.045Z,92429.00
2023-05-02T17:48:20.911Z,92429.72
2023-05-02T17:51:06.849Z,92432.16
2023-05-02T17:53:52.824Z,92431.84
2023-05-02T17:56:38.670Z,92433.09
2023-05-02T17:59:24.620Z,92432.03
2023-05-02T18:02:10.670Z,92444.16
2023-05-02T18:04:56.613Z,92442.91
2023-05-02T18:07:42.450Z,92433.53
2023-05-02T18:10:28.325Z,92441.22
2023-05-02T18:13:14.214Z,92442.84
2023-05-02T18:16:00.230Z,92434.53
2023-05-02T18:18:46.169Z,92441.25
2023-05-02T18:21:31.941Z,92437.34
2023-05-02T18:24:17.952Z,92428.50
2023-05-02T18:27:03.844Z,92442.25
2023-05-02T18:29:51.741Z,92438.34
2023-05-02T18:32:37.547Z,92450.97
2023-05-02T18:35:23.515Z,92446.78
2023-05-02T18:38:09.370Z,92446.72
2023-05-02T18:40:55.337Z,92455.81
2023-05-02T18:43:41.206Z,92454.00
2023-05-02T18:46:27.114Z,92457.16
2023-05-02T18:49:13.185Z,92452.97
2023-05-02T18:51:59.032Z,92456.66
2023-05-02T18:54:45.088Z,92456.00
2023-05-02T18:57:30.987Z,92459.13
2023-05-02T19:00:16.900Z,92456.50
2023-05-02T19:03:03.014Z,92465.22
2023-05-02T19:05:49.186Z,92466.22
2023-05-02T19:08:35.134Z,92461.41
2023-05-02T19:11:21.005Z,92470.44
2023-05-02T19:14:06.825Z,92470.66
2023-05-02T19:16:52.788Z,92471.19
2023-05-02T19:19:38.667Z,92472.34
2023-05-02T19:22:24.446Z,92466.03
2023-05-02T19:25:10.552Z,92474.09
2023-05-02T19:27:56.410Z,92482.13
2023-05-02T19:30:42.319Z,92475.34
2023-05-02T19:33:28.269Z,92474.34
2023-05-02T19:36:14.187Z,92478.28
2023-05-02T19:39:00.149Z,92475.41
2023-05-02T19:41:45.928Z,92479.47
2023-05-02T19:44:32.032Z,92475.19
2023-05-02T19:47:17.967Z,92481.53
2023-05-02T19:50:03.786Z,92486.88
2023-05-02T19:52:49.854Z,92486.94
2023-05-02T19:55:35.876Z,92483.97
2023-05-02T19:58:21.712Z,92491.97
2023-05-02T20:01:07.696Z,92485.63
2023-05-02T20:03:53.683Z,92489.47
2023-05-02T20:06:39.968Z,92488.81
2023-05-02T20:09:25.898Z,92492.78
2023-05-02T20:12:13.689Z,92492.41
2023-05-02T20:14:59.511Z,92500.22
2023-05-02T20:17:45.710Z,92497.94
2023-05-02T20:20:31.556Z,92498.00
2023-05-02T20:23:17.591Z,92495.44
2023-05-02T20:26:03.429Z,92499.94
2023-05-02T20:28:49.362Z,92490.91
2023-05-02T20:31:35.230Z,92501.84
2023-05-02T20:34:23.110Z,92497.31
2023-05-02T20:37:09.059Z,92501.53
2023-05-02T20:39:55.066Z,92491.50
2023-05-02T20:42:40.902Z,92494.00
2023-05-02T20:45:26.871Z,92492.69
2023-05-02T20:48:12.808Z,92494.97
2023-05-02T20:50:58.722Z,92490.47
2023-05-02T20:53:44.684Z,92496.41
2023-05-02T20:56:30.722Z,92483.91
2023-05-02T20:59:16.681Z,92484.75
2023-05-02T21:02:02.800Z,92487.13
2023-05-02T21:04:48.883Z,92485.34
2023-05-02T21:07:34.799Z,92483.72
2023-05-02T21:10:20.620Z,92477.28
2023-05-02T21:13:06.420Z,92475.56
2023-05-02T21:15:52.303Z,92477.19
2023-05-02T21:18:38.132Z,92468.97
2023-05-02T21:21:23.979Z,92471.28
2023-05-02T21:24:10.036Z,92475.56
2023-05-02T21:26:55.826Z,92473.41
2023-05-02T21:29:41.674Z,92474.56
2023-05-02T21:32:27.514Z,92476.25
2023-05-02T21:35:13.416Z,92471.78
2023-05-02T21:37:59.252Z,92475.25
2023-05-02T21:40:45.003Z,92475.59
2023-05-02T21:43:30.964Z,92476.94
2023-05-02T21:46:17.004Z,92478.72
2023-05-02T21:49:03.022Z,92474.22
2023-05-02T21:51:49.084Z,92475.25
2023-05-02T21:54:34.811Z,92480.56
2023-05-02T21:57:20.808Z,92476.34
2023-05-02T22:00:06.599Z,92471.78
2023-05-02T22:02:52.468Z,92468.75
2023-05-02T22:05:38.685Z,92472.72
2023-05-02T22:08:24.537Z,92472.22
2023-05-02T22:11:10.249Z,92467.88
2023-05-02T22:13:56.238Z,92464.13
2023-05-02T22:16:42.131Z,92470.94
2023-05-02T22:19:28.106Z,92465.06
2023-05-02T22:22:15.510Z,92467.78
2023-05-02T22:25:01.324Z,92464.00
2023-05-02T22:27:47.064Z,92465.16
2023-05-02T22:30:33.080Z,92458.03
2023-05-02T22:33:19.978Z,92463.84
2023-05-02T22:36:05.924Z,92454.72
2023-05-02T22:38:51.982Z,92459.53
2023-05-02T22:41:37.889Z,92460.06
2023-05-02T22:44:23.759Z,92458.63
2023-05-02T22:47:09.704Z,92458.81
2023-05-02T22:49:55.640Z,92464.78
2023-05-02T22:52:41.432Z,92460.94
2023-05-02T22:55:27.386Z,92460.53
2023-05-02T22:58:13.308Z,92458.63
2023-05-02T23:00:59.088Z,92467.41
2023-05-02T23:03:45.078Z,92462.34
2023-05-02T23:06:31.492Z,92457.63
2023-05-02T23:09:17.414Z,92457.56
2023-05-02T23:12:03.245Z,92453.59
2023-05-02T23:14:49.045Z,92450.38
2023-05-02T23:17:34.910Z,92453.00
2023-05-02T23:20:20.827Z,92449.53
2023-05-02T23:23:06.569Z,92457.13
2023-05-02T23:25:52.405Z,92454.75
2023-05-02T23:28:38.193Z,92454.50
2023-05-02T23:31:23.989Z,92449.00
2023-05-02T23:34:09.844Z,92440.13
2023-05-02T23:36:55.736Z,92442.28
2023-05-02T23:39:41.797Z,92437.19
2023-05-02T23:42:27.714Z,92449.31
2023-05-02T23:45:13.639Z,92450.91
2023-05-02T23:47:59.634Z,92449.31
2023-05-02T23:50:45.544Z,92447.50
2023-05-02T23:53:31.412Z,92444.72
2023-05-02T23:56:17.273Z,92443.31
2023-05-02T23:59:04.993Z,92445.22
